createdAt,value
2022-08-17T00:01:52.626Z,59.30
2022-08-17T00:04:21.152Z,60.05
2022-08-17T00:06:49.946Z,57.13
2022-08-17T00:09:19.476Z,55.25
2022-08-17T00:12:03.938Z,61.30
2022-08-17T00:14:39.979Z,62.15
2022-08-17T00:17:07.984Z,59.53
2022-08-17T00:19:35.911Z,55.38
2022-08-17T00:22:31.004Z,60.30
2022-08-17T00:24:54.580Z,61.55
2022-08-17T00:27:22.567Z,55.83
2022-08-17T00:29:52.131Z,57.33
2022-08-17T00:33:14.481Z,61.58
2022-08-17T00:35:11.039Z,54.90
2022-08-17T00:37:38.932Z,56.78
2022-08-17T00:40:08.714Z,60.40
2022-08-17T00:42:37.003Z,50.60
2022-08-17T00:45:09.162Z,56.35
2022-08-17T00:47:37.073Z,62.30
2022-08-17T00:50:05.470Z,63.88
2022-08-17T00:52:38.257Z,62.63
2022-08-17T00:55:08.207Z,62.47
2022-08-17T00:57:40.630Z,60.22
2022-08-17T01:00:14.196Z,62.83
2022-08-17T01:02:45.059Z,69.38
2022-08-17T01:05:19.824Z,75.70
2022-08-17T01:07:50.789Z,73.72
2022-08-17T01:10:58.301Z,72.38
2022-08-17T01:13:11.276Z,69.13
2022-08-17T01:15:46.165Z,68.75
2022-08-17T01:18:15.929Z,69.30
2022-08-17T01:20:48.896Z,66.57
2022-08-17T01:23:21.349Z,74.32
2022-08-17T01:25:51.879Z,76.05
2022-08-17T01:28:52.490Z,73.68
2022-08-17T01:31:09.899Z,76.50
2022-08-17T01:33:38.524Z,75.13
2022-08-17T01:36:07.931Z,73.80
2022-08-17T01:38:38.265Z,64.75
2022-08-17T01:41:11.230Z,46.22
2022-08-17T01:43:44.532Z,41.58
2022-08-17T01:46:16.722Z,40.33
2022-08-17T01:51:16.450Z,37.72
2022-08-17T01:53:49.537Z,40.25
2022-08-17T01:56:20.559Z,42.50
2022-08-17T01:58:48.855Z,44.40
2022-08-17T02:01:17.894Z,45.15
2022-08-17T02:03:59.176Z,45.63
2022-08-17T02:06:30.124Z,49.75
2022-08-17T02:09:02.754Z,46.08
2022-08-17T02:11:32.301Z,46.25
2022-08-17T02:14:02.929Z,45.85
2022-08-17T02:16:36.996Z,47.58
2022-08-17T02:19:07.947Z,49.80
2022-08-17T02:21:36.590Z,52.28
2022-08-17T02:24:07.805Z,48.78
2022-08-17T02:26:35.772Z,47.03
2022-08-17T02:29:04.012Z,40.55
2022-08-17T02:31:32.506Z,43.00
2022-08-17T02:34:04.505Z,43.78
2022-08-17T02:36:34.101Z,44.08
2022-08-17T02:39:02.735Z,39.83
2022-08-17T02:41:32.042Z,40.70
2022-08-17T02:43:59.921Z,40.83
2022-08-17T02:46:28.302Z,40.70
2022-08-17T02:48:56.297Z,38.05
2022-08-17T02:51:24.488Z,39.03
2022-08-17T02:53:52.525Z,34.63
2022-08-17T02:56:41.726Z,35.03
2022-08-17T02:59:09.740Z,35.33
2022-08-17T03:01:37.682Z,30.27
2022-08-17T03:04:05.873Z,31.48
2022-08-17T03:06:33.861Z,34.42
2022-08-17T03:09:01.779Z,28.80
2022-08-17T03:11:29.846Z,27.13
2022-08-17T03:13:59.245Z,25.13
2022-08-17T03:16:27.346Z,24.95
2022-08-17T03:18:55.229Z,23.23
2022-08-17T03:21:23.113Z,24.23
2022-08-17T03:23:54.441Z,23.27
2022-08-17T03:26:22.653Z,20.98
2022-08-17T03:28:50.622Z,20.38
2022-08-17T03:31:21.421Z,23.35
2022-08-17T03:33:49.322Z,21.15
2022-08-17T03:36:17.491Z,19.67
2022-08-17T03:38:45.347Z,19.48
2022-08-17T03:41:13.956Z,17.75
2022-08-17T03:43:41.956Z,17.17
2022-08-17T03:46:35.079Z,16.45
2022-08-17T03:49:23.298Z,14.35
2022-08-17T03:52:08.834Z,15.38
2022-08-17T03:54:53.613Z,16.65
2022-08-17T03:57:21.604Z,15.85
2022-08-17T03:59:49.572Z,16.65
2022-08-17T04:02:19.925Z,14.77
2022-08-17T04:04:51.304Z,14.80
2022-08-17T04:07:19.746Z,15.60
2022-08-17T04:09:47.902Z,14.10
2022-08-17T04:12:17.181Z,15.35
2022-08-17T04:14:52.731Z,14.98
2022-08-17T04:17:24.278Z,16.30
2022-08-17T04:19:54.650Z,17.17
2022-08-17T04:22:31.962Z,16.20
2022-08-17T04:25:05.326Z,16.48
2022-08-17T04:27:33.414Z,16.45
2022-08-17T04:30:01.718Z,16.08
2022-08-17T04:33:00.634Z,15.68
2022-08-17T04:35:22.255Z,16.58
2022-08-17T04:37:50.256Z,15.30
2022-08-17T04:40:37.085Z,16.60
2022-08-17T04:43:07.230Z,16.30
2022-08-17T04:45:35.330Z,17.95
2022-08-17T04:48:04.273Z,20.42
2022-08-17T04:50:35.033Z,21.23
2022-08-17T04:53:03.083Z,24.50
2022-08-17T04:55:31.375Z,26.23
2022-08-17T04:57:59.303Z,26.80
2022-08-17T05:00:27.364Z,27.40
2022-08-17T05:02:57.167Z,27.35
2022-08-17T05:05:27.341Z,30.70
2022-08-17T05:07:58.708Z,32.20
2022-08-17T05:10:28.850Z,31.03
2022-08-17T05:13:00.901Z,36.13
2022-08-17T05:15:33.098Z,35.75
2022-08-17T05:18:04.938Z,32.78
2022-08-17T05:20:33.238Z,35.50
2022-08-17T05:23:07.098Z,34.30
2022-08-17T05:25:37.450Z,34.75
2022-08-17T05:28:06.327Z,38.88
2022-08-17T05:30:35.213Z,37.78
2022-08-17T05:33:05.929Z,38.72
2022-08-17T05:35:36.115Z,37.40
2022-08-17T05:38:06.093Z,36.10
2022-08-17T05:40:34.026Z,33.90
2022-08-17T05:43:07.066Z,36.53
2022-08-17T05:45:55.260Z,38.65
2022-08-17T05:48:36.747Z,34.13
2022-08-17T05:51:25.175Z,38.38
2022-08-17T05:54:05.523Z,35.55
2022-08-17T05:56:50.327Z,31.17
2022-08-17T05:59:27.290Z,35.67
2022-08-17T06:02:03.404Z,32.45
2022-08-17T06:04:47.797Z,34.15
2022-08-17T06:07:22.102Z,33.45
2022-08-17T06:10:04.274Z,35.75
2022-08-17T06:12:41.774Z,34.97
2022-08-17T06:15:24.858Z,34.42
2022-08-17T06:17:56.120Z,35.67
2022-08-17T06:20:26.148Z,33.65
2022-08-17T06:23:03.079Z,37.33
2022-08-17T06:25:37.879Z,33.13
2022-08-17T06:28:09.983Z,32.53
2022-08-17T06:30:59.698Z,34.75
2022-08-17T06:33:34.287Z,35.75
2022-08-17T06:36:15.807Z,31.60
2022-08-17T06:38:54.406Z,35.50
2022-08-17T06:41:28.913Z,32.22
2022-08-17T06:44:11.046Z,34.20
2022-08-17T06:46:42.376Z,32.80
2022-08-17T06:49:19.781Z,35.05
2022-08-17T06:51:52.840Z,36.03
2022-08-17T06:54:32.695Z,35.65
2022-08-17T06:57:09.997Z,36.40
2022-08-17T06:59:54.583Z,33.63
2022-08-17T07:02:52.589Z,33.53
2022-08-17T07:05:25.197Z,33.33
2022-08-17T07:08:02.589Z,31.25
2022-08-17T07:10:42.622Z,29.10
2022-08-17T07:13:29.582Z,27.77
2022-08-17T07:16:14.857Z,25.10
2022-08-17T07:18:43.765Z,26.25
2022-08-17T07:21:26.486Z,26.38
2022-08-17T07:24:06.467Z,29.08
2022-08-17T07:26:34.490Z,28.52
2022-08-17T07:29:03.873Z,30.50
2022-08-17T07:31:33.479Z,28.65
2022-08-17T07:34:06.748Z,31.13
2022-08-17T07:36:35.229Z,32.10
2022-08-17T07:39:05.839Z,31.20
2022-08-17T07:41:53.447Z,33.10
2022-08-17T07:44:28.105Z,31.52
2022-08-17T07:47:14.475Z,33.40
2022-08-17T07:49:46.119Z,33.45
2022-08-17T07:52:50.966Z,29.88
2022-08-17T07:55:29.396Z,30.45
2022-08-17T07:57:58.490Z,28.65
2022-08-17T08:00:32.180Z,25.98
2022-08-17T08:03:05.982Z,26.55
2022-08-17T08:05:50.391Z,29.35
2022-08-17T08:08:30.986Z,29.13
2022-08-17T08:11:09.337Z,28.88
2022-08-17T08:13:45.355Z,29.13
2022-08-17T08:16:24.257Z,28.35
2022-08-17T08:18:57.418Z,28.88
2022-08-17T08:21:47.413Z,29.00
2022-08-17T08:24:44.045Z,26.85
2022-08-17T08:27:23.367Z,26.30
2022-08-17T08:29:58.667Z,26.23
2022-08-17T08:32:40.600Z,24.33
2022-08-17T08:35:12.997Z,23.45
2022-08-17T08:37:49.549Z,24.63
2022-08-17T08:40:38.335Z,23.77
2022-08-17T08:43:22.651Z,22.33
2022-08-17T08:45:57.126Z,23.88
2022-08-17T08:48:56.641Z,24.13
2022-08-17T08:51:37.587Z,24.35
2022-08-17T08:54:14.471Z,28.02
2022-08-17T08:57:19.510Z,29.45
2022-08-17T08:59:44.790Z,26.25
2022-08-17T09:02:52.578Z,27.48
2022-08-17T09:05:36.577Z,27.90
2022-08-17T09:08:13.045Z,23.73
2022-08-17T09:10:56.765Z,23.60
2022-08-17T09:13:37.034Z,21.90
2022-08-17T09:16:11.499Z,16.10
2022-08-17T09:19:01.473Z,11.23
2022-08-17T09:21:45.795Z,13.13
2022-08-17T09:24:24.032Z,14.88
2022-08-17T09:26:59.103Z,16.02
2022-08-17T09:29:32.180Z,14.43
2022-08-17T09:32:03.790Z,14.32
2022-08-17T09:34:36.260Z,14.57
2022-08-17T09:37:16.330Z,17.75
2022-08-17T09:39:52.888Z,17.33
2022-08-17T09:42:26.134Z,16.55
2022-08-17T09:45:03.836Z,17.45
2022-08-17T09:47:36.854Z,18.48
2022-08-17T09:50:11.440Z,17.33
2022-08-17T09:52:43.204Z,18.02
2022-08-17T09:55:11.202Z,16.35
2022-08-17T09:57:52.389Z,16.00
2022-08-17T10:00:25.490Z,16.85
2022-08-17T10:03:16.358Z,18.65
2022-08-17T10:05:51.290Z,19.73
2022-08-17T10:08:35.966Z,19.80
2022-08-17T10:11:13.961Z,18.60
2022-08-17T10:13:52.874Z,15.80
2022-08-17T10:16:27.098Z,15.88
2022-08-17T10:19:06.556Z,14.23
2022-08-17T10:22:00.951Z,14.15
2022-08-17T10:25:21.174Z,13.40
2022-08-17T10:27:55.511Z,11.88
2022-08-17T10:30:25.966Z,11.32
2022-08-17T10:32:59.219Z,10.68
2022-08-17T10:35:34.068Z,10.40
2022-08-17T10:38:30.027Z,11.18
2022-08-17T10:41:04.164Z,12.18
2022-08-17T10:43:41.769Z,13.90
2022-08-17T10:46:30.268Z,14.45
2022-08-17T10:49:29.329Z,15.80
2022-08-17T10:51:58.962Z,18.77
2022-08-17T10:54:47.906Z,17.50
2022-08-17T10:57:39.267Z,19.38
2022-08-17T11:00:12.839Z,18.15
2022-08-17T11:02:49.290Z,18.05
2022-08-17T11:05:43.526Z,18.85
2022-08-17T11:08:38.985Z,21.05
2022-08-17T11:11:26.615Z,18.58
2022-08-17T11:14:11.179Z,20.80
2022-08-17T11:16:51.110Z,22.70
2022-08-17T11:20:00.690Z,21.05
2022-08-17T11:23:10.949Z,22.25
2022-08-17T11:25:41.885Z,23.55
2022-08-17T11:28:18.032Z,23.30
2022-08-17T11:30:53.177Z,20.90
2022-08-17T11:33:57.697Z,20.27
2022-08-17T11:36:54.694Z,18.92
2022-08-17T11:39:35.734Z,18.88
2022-08-17T11:42:12.000Z,19.20
2022-08-17T11:44:52.187Z,18.75
2022-08-17T11:48:08.982Z,19.63
2022-08-17T11:51:07.758Z,20.17
2022-08-17T11:54:21.386Z,22.20
2022-08-17T11:56:48.729Z,22.23
2022-08-17T11:59:57.678Z,24.70
2022-08-17T12:02:47.376Z,25.83
2022-08-17T12:05:35.325Z,27.15
2022-08-17T12:08:12.688Z,28.05
2022-08-17T12:10:53.092Z,25.55
2022-08-17T12:13:23.656Z,27.80
2022-08-17T12:16:00.057Z,29.88
2022-08-17T12:18:32.433Z,27.98
2022-08-17T12:21:20.766Z,31.33
2022-08-17T12:23:56.627Z,28.98
2022-08-17T12:26:30.454Z,30.92
2022-08-17T12:29:01.943Z,33.30
2022-08-17T12:31:34.482Z,30.50
2022-08-17T12:34:05.506Z,33.40
2022-08-17T12:36:34.669Z,32.67
2022-08-17T12:39:14.155Z,34.88
2022-08-17T12:41:50.359Z,31.25
2022-08-17T12:44:30.943Z,33.97
2022-08-17T12:47:04.788Z,33.00
2022-08-17T12:49:35.438Z,29.77
2022-08-17T12:52:15.375Z,33.95
2022-08-17T12:54:49.024Z,31.35
2022-08-17T12:57:20.292Z,32.22
2022-08-17T12:59:54.253Z,29.85
2022-08-17T13:02:33.527Z,31.50
2022-08-17T13:05:02.884Z,31.58
2022-08-17T13:07:35.110Z,30.35
2022-08-17T13:12:34.239Z,29.50
2022-08-17T13:15:03.770Z,31.40
2022-08-17T13:17:35.760Z,29.65
2022-08-17T13:20:06.015Z,30.67
2022-08-17T13:22:34.020Z,28.38
2022-08-17T13:25:07.054Z,29.35
2022-08-17T13:27:35.031Z,27.73
2022-08-17T13:30:11.616Z,26.48
2022-08-17T13:32:44.321Z,27.50
2022-08-17T13:35:39.267Z,27.13
2022-08-17T13:38:10.234Z,28.40
2022-08-17T13:40:43.403Z,27.92
2022-08-17T13:43:13.330Z,26.02
2022-08-17T13:45:53.391Z,27.50
2022-08-17T13:48:25.610Z,27.15
2022-08-17T13:54:01.514Z,27.08
2022-08-17T13:56:41.590Z,28.52
2022-08-17T13:59:12.502Z,29.02
2022-08-17T14:01:45.832Z,29.13
2022-08-17T14:04:17.918Z,27.30
2022-08-17T14:06:54.581Z,28.63
2022-08-17T14:09:25.056Z,26.55
2022-08-17T14:11:55.037Z,29.30
2022-08-17T14:14:24.139Z,28.15
2022-08-17T14:16:54.298Z,27.98
2022-08-17T14:19:22.917Z,28.23
2022-08-17T14:21:51.699Z,28.33
2022-08-17T14:24:23.678Z,27.10
2022-08-17T14:26:52.931Z,28.58
2022-08-17T14:29:21.466Z,26.10
2022-08-17T14:31:54.339Z,28.90
2022-08-17T14:34:24.364Z,27.90
2022-08-17T14:36:52.754Z,26.77
2022-08-17T14:39:21.061Z,26.42
2022-08-17T14:41:49.019Z,26.58
2022-08-17T14:44:17.093Z,27.15
2022-08-17T14:46:45.881Z,27.15
2022-08-17T14:49:15.589Z,25.48
2022-08-17T14:51:44.961Z,25.90
2022-08-17T14:54:33.013Z,24.58
2022-08-17T14:57:23.172Z,23.48
2022-08-17T14:59:53.219Z,25.80
2022-08-17T15:02:29.876Z,26.30
2022-08-17T15:05:02.370Z,24.38
2022-08-17T15:07:32.113Z,23.33
2022-08-17T15:10:01.427Z,23.55
2022-08-17T15:12:34.709Z,25.30
2022-08-17T15:15:04.812Z,24.92
2022-08-17T15:17:44.353Z,24.95
2022-08-17T15:20:16.074Z,25.55
2022-08-17T15:22:46.838Z,24.98
2022-08-17T15:25:15.123Z,25.52
2022-08-17T15:27:44.028Z,24.23
2022-08-17T15:30:13.040Z,24.45
2022-08-17T15:32:51.448Z,24.25
2022-08-17T15:35:27.416Z,25.05
2022-08-17T15:38:06.200Z,24.90
2022-08-17T15:40:36.563Z,24.25
2022-08-17T15:43:06.788Z,19.50
2022-08-17T15:45:35.360Z,19.50
2022-08-17T15:48:03.493Z,17.20
2022-08-17T15:50:31.495Z,18.38
2022-08-17T15:53:03.247Z,17.70
2022-08-17T15:55:32.623Z,17.17
2022-08-17T15:58:01.019Z,18.00
2022-08-17T16:00:29.563Z,16.48
2022-08-17T16:03:46.346Z,15.88
2022-08-17T16:05:49.920Z,16.40
2022-08-17T16:08:21.314Z,16.33
2022-08-17T16:10:49.718Z,16.55
2022-08-17T16:13:18.412Z,15.75
2022-08-17T16:15:53.029Z,15.80
2022-08-17T16:18:28.238Z,17.23
2022-08-17T16:20:56.429Z,17.47
2022-08-17T16:23:25.748Z,17.73
2022-08-17T16:25:54.520Z,18.10
2022-08-17T16:28:23.386Z,16.25
2022-08-17T16:31:05.670Z,16.00
2022-08-17T16:36:04.823Z,18.38
2022-08-17T16:38:34.287Z,16.80
2022-08-17T16:41:02.610Z,17.02
2022-08-17T16:43:31.252Z,17.05
2022-08-17T16:46:00.758Z,16.38
2022-08-17T16:48:29.199Z,15.65
2022-08-17T16:51:03.142Z,17.08
2022-08-17T16:53:33.653Z,15.68
2022-08-17T16:56:01.550Z,16.95
2022-08-17T16:58:30.124Z,14.68
2022-08-17T17:00:59.731Z,16.52
2022-08-17T17:03:30.498Z,16.42
2022-08-17T17:06:08.975Z,16.27
2022-08-17T17:08:44.543Z,14.65
2022-08-17T17:11:17.667Z,14.93
2022-08-17T17:13:49.930Z,15.02
2022-08-17T17:19:04.698Z,15.75
2022-08-17T17:21:38.831Z,15.93
2022-08-17T17:24:15.004Z,17.80
2022-08-17T17:27:20.147Z,16.15
2022-08-17T17:30:03.223Z,16.83
2022-08-17T17:32:38.515Z,16.08
2022-08-17T17:35:12.084Z,14.43
2022-08-17T17:37:42.601Z,16.55
2022-08-17T17:40:19.057Z,15.35
2022-08-17T17:42:48.535Z,15.60
2022-08-17T17:45:21.381Z,15.05
2022-08-17T17:47:49.856Z,14.27
2022-08-17T17:50:19.643Z,13.52
2022-08-17T17:52:54.801Z,13.48
2022-08-17T17:55:43.566Z,14.05
2022-08-17T17:58:22.913Z,15.50
2022-08-17T18:01:00.532Z,14.88
2022-08-17T18:03:45.653Z,16.52
2022-08-17T18:06:21.255Z,16.42
2022-08-17T18:09:08.809Z,18.52
2022-08-17T18:12:00.956Z,18.15
2022-08-17T18:14:43.902Z,18.88
2022-08-17T18:17:12.589Z,19.05
2022-08-17T18:19:41.479Z,19.23
2022-08-17T18:22:14.104Z,18.60
2022-08-17T18:24:45.265Z,18.52
2022-08-17T18:27:25.578Z,18.77
2022-08-17T18:29:55.566Z,17.83
2022-08-17T18:32:38.438Z,18.02
2022-08-17T18:35:32.617Z,18.10
2022-08-17T18:38:21.676Z,16.77
2022-08-17T18:41:00.767Z,15.02
2022-08-17T18:43:44.073Z,15.57
2022-08-17T18:46:29.721Z,15.38
2022-08-17T18:48:59.810Z,16.33
2022-08-17T18:51:40.677Z,13.80
2022-08-17T18:54:17.211Z,11.77
2022-08-17T18:56:57.077Z,13.75
2022-08-17T18:59:35.495Z,13.50
2022-08-17T19:02:36.090Z,12.57
2022-08-17T19:05:17.314Z,13.25
2022-08-17T19:07:47.480Z,13.20
2022-08-17T19:10:21.886Z,13.00
2022-08-17T19:12:54.144Z,13.27
2022-08-17T19:15:35.876Z,14.00
2022-08-17T19:18:14.699Z,12.48
2022-08-17T19:20:48.376Z,13.50
2022-08-17T19:23:23.329Z,13.18
2022-08-17T19:25:58.404Z,13.43
2022-08-17T19:28:33.216Z,13.73
2022-08-17T19:31:17.846Z,13.02
2022-08-17T19:33:47.966Z,12.52
2022-08-17T19:36:31.825Z,12.32
2022-08-17T19:39:09.846Z,11.57
2022-08-17T19:41:46.137Z,13.45
2022-08-17T19:44:27.962Z,13.27
2022-08-17T19:47:06.127Z,12.60
2022-08-17T19:49:46.662Z,12.38
2022-08-17T19:52:39.519Z,12.27
2022-08-17T19:55:19.806Z,13.80
2022-08-17T19:58:05.070Z,11.82
2022-08-17T20:00:39.584Z,11.50
2022-08-17T20:03:16.645Z,11.95
2022-08-17T20:06:11.522Z,12.20
2022-08-17T20:08:46.716Z,10.85
2022-08-17T20:11:21.200Z,12.48
2022-08-17T20:13:56.055Z,12.60
2022-08-17T20:16:25.048Z,11.75
2022-08-17T20:19:00.736Z,12.65
2022-08-17T20:21:38.202Z,11.00
2022-08-17T20:24:17.458Z,13.05
2022-08-17T20:26:58.370Z,11.07
2022-08-17T20:29:40.033Z,12.23
2022-08-17T20:32:19.886Z,12.32
2022-08-17T20:34:49.723Z,11.55
2022-08-17T20:37:31.028Z,11.45
2022-08-17T20:40:30.622Z,10.80
2022-08-17T20:42:59.552Z,10.80
2022-08-17T20:46:00.832Z,10.93
2022-08-17T20:48:38.303Z,11.23
2022-08-17T20:51:30.446Z,11.27
2022-08-17T20:54:34.009Z,11.03
2022-08-17T20:57:02.517Z,10.38
2022-08-17T21:00:14.515Z,11.70
2022-08-17T21:02:44.475Z,9.65
2022-08-17T21:05:32.375Z,11.10
2022-08-17T21:08:14.557Z,12.70
2022-08-17T21:10:45.630Z,11.18
2022-08-17T21:14:01.651Z,10.50
2022-08-17T21:16:39.142Z,12.30
2022-08-17T21:19:17.509Z,10.75
2022-08-17T21:21:59.002Z,11.93
2022-08-17T21:24:41.047Z,12.05
2022-08-17T21:27:23.043Z,14.32
2022-08-17T21:30:13.573Z,11.57
2022-08-17T21:32:45.992Z,12.68
2022-08-17T21:35:48.242Z,14.07
2022-08-17T21:38:19.334Z,14.15
2022-08-17T21:40:53.769Z,13.05
2022-08-17T21:43:28.624Z,13.20
2022-08-17T21:46:00.837Z,14.32
2022-08-17T21:48:33.790Z,12.77
2022-08-17T21:51:10.543Z,12.95
2022-08-17T21:53:44.418Z,13.88
2022-08-17T21:56:23.332Z,12.93
2022-08-17T21:58:58.883Z,13.25
2022-08-17T22:01:29.261Z,11.88
2022-08-17T22:04:05.420Z,12.35
2022-08-17T22:06:38.091Z,11.82
2022-08-17T22:09:14.356Z,12.38
2022-08-17T22:11:57.458Z,12.30
2022-08-17T22:14:51.653Z,12.90
2022-08-17T22:17:19.254Z,12.70
2022-08-17T22:19:51.374Z,12.03
2022-08-17T22:22:29.465Z,11.85
2022-08-17T22:24:58.993Z,11.65
2022-08-17T22:27:49.785Z,12.02
2022-08-17T22:30:26.037Z,12.02
2022-08-17T22:32:54.030Z,11.55
2022-08-17T22:35:43.031Z,11.18
2022-08-17T22:38:31.042Z,11.68
2022-08-17T22:41:32.054Z,12.73
2022-08-17T22:44:15.288Z,11.32
2022-08-17T22:47:01.042Z,12.65
2022-08-17T22:49:32.767Z,12.93
2022-08-17T22:52:02.919Z,12.65
2022-08-17T22:54:49.375Z,15.27
2022-08-17T22:57:51.513Z,13.52
2022-08-17T23:00:33.948Z,13.32
2022-08-17T23:03:12.198Z,14.98
2022-08-17T23:05:42.896Z,15.57
2022-08-17T23:08:13.479Z,14.75
2022-08-17T23:10:42.557Z,16.35
2022-08-17T23:13:12.459Z,15.75
2022-08-17T23:15:42.068Z,14.18
2022-08-17T23:18:10.059Z,13.73
2022-08-17T23:20:41.202Z,15.73
2022-08-17T23:23:10.954Z,13.43
2022-08-17T23:25:39.106Z,14.57
2022-08-17T23:28:08.034Z,13.25
2022-08-17T23:30:39.838Z,14.65
2022-08-17T23:33:17.642Z,16.02
2022-08-17T23:35:45.660Z,17.60
2022-08-17T23:38:14.643Z,14.20
2022-08-17T23:40:42.794Z,12.82
2022-08-17T23:43:24.705Z,13.18
2022-08-17T23:45:55.007Z,13.20
2022-08-17T23:48:28.466Z,13.93
2022-08-17T23:51:08.754Z,14.60
2022-08-17T23:53:38.616Z,14.77
2022-08-17T23:56:10.311Z,12.35
